Time;durP1;ratioP1;P1;durP2;ratioP2;P2;SDS_P1;SDS_P2;PMS_P1;PMS_P2;Temp;Humidity;BMP_temperature;BMP_pressure;BME280_temperature;BME280_humidity;BME280_pressure;Samples;Min_cycle;Max_cycle;Signal;HPM_P1;HPM_P2
2021/09/27 00:01:13;;;;;;;;;6.00;6.00;;;;;20.02;69.76;101221.69;5062360;28;46410;-79
2021/09/27 00:03:39;;;;;;;;;5.50;5.50;;;;;20.02;70.07;101205.94;5061975;28;45878;-79
2021/09/27 00:06:07;;;;;;;;;4.75;4.75;;;;;20.02;69.80;101210.28;5062497;28;45665;-79
2021/09/27 00:08:33;;;;;;;;;7.25;7.25;;;;;20.09;69.81;101220.91;5062735;28;45527;-77
2021/09/27 00:11:02;;;;;;;;;8.25;6.00;;;;;20.12;69.55;101212.16;5061190;28;45629;-79
2021/09/27 00:13:34;;;;;;;;;6.25;6.25;;;;;20.08;69.56;101205.13;5062353;28;45646;-79
2021/09/27 00:16:00;;;;;;;;;5.00;3.50;;;;;20.11;69.65;101202.50;5062243;28;45426;-78
2021/09/27 00:18:27;;;;;;;;;6.00;5.25;;;;;20.18;69.30;101211.34;5062589;28;45572;-80
2021/09/27 00:20:56;;;;;;;;;8.00;4.00;;;;;20.19;69.76;101214.00;5061750;28;45334;-78
2021/09/27 00:23:24;;;;;;;;;6.25;5.25;;;;;20.16;69.30;101205.19;5061910;28;45521;-77
2021/09/27 00:25:50;;;;;;;;;4.25;3.00;;;;;20.09;69.42;101207.75;5062381;28;45405;-79
2021/09/27 00:28:16;;;;;;;;;4.50;4.50;;;;;19.95;70.00;101204.97;5062458;28;45571;-78
2021/09/27 00:30:43;;;;;;;;;6.75;5.00;;;;;19.95;69.74;101212.84;5062027;28;45284;-79
2021/09/27 00:33:10;;;;;;;;;6.25;6.25;;;;;19.93;69.68;101206.69;5061903;28;45316;-81
2021/09/27 00:35:38;;;;;;;;;6.50;5.25;;;;;19.83;70.33;101201.25;5062159;28;45389;-79
2021/09/27 00:38:06;;;;;;;;;5.25;5.00;;;;;19.79;69.96;101210.84;5062077;28;45344;-78
2021/09/27 00:40:38;;;;;;;;;5.25;5.25;;;;;19.74;70.04;101216.03;5061835;28;45317;-79
2021/09/27 00:43:04;;;;;;;;;6.75;5.50;;;;;19.59;70.61;101195.69;5061810;28;45780;-78
2021/09/27 00:45:34;;;;;;;;;4.75;4.75;;;;;19.64;70.39;101217.69;5059455;28;45364;-81
2021/09/27 00:48:00;;;;;;;;;7.75;5.00;;;;;19.59;70.28;101210.59;5063613;28;45193;-85
2021/09/27 00:50:29;;;;;;;;;7.50;6.75;;;;;19.51;70.58;101202.59;5058711;28;46093;-83
2021/09/27 00:52:55;;;;;;;;;5.00;5.00;;;;;19.49;70.83;101207.81;5058930;28;45730;-82
2021/09/27 00:55:24;;;;;;;;;5.25;5.25;;;;;19.45;70.79;101199.88;5059177;28;45338;-85
2021/09/27 00:57:50;;;;;;;;;6.25;4.50;;;;;19.37;70.74;101188.38;5059093;28;45216;-84
2021/09/27 01:00:20;;;;;;;;;5.50;5.50;;;;;19.31;70.75;101181.28;5057944;28;45527;-85
2021/09/27 01:02:46;;;;;;;;;6.00;6.00;;;;;19.32;70.96;101185.69;5058803;28;45265;-81
2021/09/27 01:05:14;;;;;;;;;7.00;5.25;;;;;19.31;71.33;101178.66;5059557;28;45208;-82
2021/09/27 01:08:31;;;;;;;;;5.00;5.00;;;;;19.29;71.04;101173.41;5060155;28;45236;-83
2021/09/27 01:11:15;;;;;;;;;4.00;4.00;;;;;19.38;71.51;101182.28;5058117;28;45438;-85
2021/09/27 01:14:16;;;;;;;;;6.25;4.75;;;;;19.38;71.18;101177.03;5058501;28;45788;-85
2021/09/27 01:17:00;;;;;;;;;5.00;4.50;;;;;19.38;71.15;101175.28;5046329;28;45523;-83
2021/09/27 01:19:56;;;;;;;;;6.00;6.00;;;;;19.38;70.53;101182.28;5057271;28;45445;-84
2021/09/27 01:23:01;;;;;;;;;4.00;4.00;;;;;19.34;70.92;101176.09;5057660;28;45367;-82
2021/09/27 01:25:48;;;;;;;;;6.75;6.75;;;;;19.34;70.72;101168.22;5046976;28;45532;-84
2021/09/27 01:28:43;;;;;;;;;5.50;5.00;;;;;19.34;70.86;101166.47;5058219;28;45248;-83
2021/09/27 01:31:39;;;;;;;;;4.25;4.25;;;;;19.42;70.31;101176.22;5058698;28;45178;-83
2021/09/27 01:34:08;;;;;;;;;5.75;5.00;;;;;19.42;70.31;101177.09;5060029;28;46092;-81
2021/09/27 01:36:49;;;;;;;;;8.00;5.25;;;;;19.42;70.20;101174.47;5064028;28;45335;-81
2021/09/27 01:39:44;;;;;;;;;6.00;6.00;;;;;19.43;69.80;101175.34;5058998;28;45249;-82
2021/09/27 01:42:27;;;;;;;;;6.25;5.00;;;;;19.43;70.32;101170.09;5056431;28;45463;-77
2021/09/27 01:45:10;;;;;;;;;5.25;5.25;;;;;19.41;70.36;101164.81;5058178;28;45434;-78
2021/09/27 01:47:55;;;;;;;;;5.00;5.00;;;;;19.40;69.99;101162.19;5057813;28;45697;-83
2021/09/27 01:50:27;;;;;;;;;7.50;4.00;;;;;19.45;69.83;101171.88;5056737;28;45397;-84
2021/09/27 01:52:59;;;;;;;;;6.50;5.50;;;;;19.48;69.80;101161.44;5057799;28;45527;-80
2021/09/27 01:55:35;;;;;;;;;5.50;4.75;;;;;19.52;69.71;101158.81;5056823;28;46364;-84
2021/09/27 01:58:27;;;;;;;;;8.00;6.75;;;;;19.52;69.82;101143.06;5057161;28;45864;-79
2021/09/27 02:01:00;;;;;;;;;5.00;5.00;;;;;19.47;70.11;101146.53;5056080;28;45363;-83
2021/09/27 02:03:48;;;;;;;;;7.25;6.00;;;;;19.40;70.89;101139.41;5057712;28;45319;-78
2021/09/27 02:06:22;;;;;;;;;6.50;6.50;;;;;19.33;70.91;101132.31;5057237;28;45264;-79
2021/09/27 02:08:56;;;;;;;;;5.25;5.25;;;;;19.25;71.25;101121.72;5057670;28;45242;-79
2021/09/27 02:11:52;;;;;;;;;5.75;5.00;;;;;19.28;71.41;101136.63;5057598;28;45259;-78
2021/09/27 02:14:28;;;;;;;;;5.75;4.75;;;;;19.23;71.46;101139.19;5057550;28;45239;-79
2021/09/27 02:17:14;;;;;;;;;7.25;6.75;;;;;19.20;71.46;101131.28;5057510;28;45433;-79
2021/09/27 02:20:04;;;;;;;;;3.75;3.75;;;;;19.22;71.12;101134.78;5053696;28;45269;-78
2021/09/27 02:23:11;;;;;;;;;7.00;6.00;;;;;19.20;70.95;101136.53;5059344;28;45496;-78
2021/09/27 02:25:41;;;;;;;;;5.25;4.75;;;;;19.18;70.97;101139.09;5037890;28;45479;-78
2021/09/27 02:28:26;;;;;;;;;8.00;7.25;;;;;19.18;71.50;101141.75;5036449;28;45824;-84
2021/09/27 02:30:54;;;;;;;;;5.00;4.00;;;;;19.20;71.07;101144.41;5049416;28;45716;-78
2021/09/27 02:33:39;;;;;;;;;8.75;6.50;;;;;19.21;71.29;101142.66;5056882;28;45378;-79
2021/09/27 02:36:14;;;;;;;;;7.00;7.00;;;;;19.18;70.96;101136.47;5055532;28;45425;-80
2021/09/27 02:39:15;;;;;;;;;7.00;7.00;;;;;19.17;70.88;101139.09;5056875;28;45391;-78
2021/09/27 02:41:48;;;;;;;;;5.75;5.75;;;;;19.20;71.30;101130.38;5056734;28;45766;-80
2021/09/27 02:44:15;;;;;;;;;8.50;5.75;;;;;19.19;70.77;101132.13;5056562;28;45380;-79
2021/09/27 02:46:43;;;;;;;;;5.00;5.00;;;;;19.20;70.61;101125.13;5057096;28;45529;-80
2021/09/27 02:49:13;;;;;;;;;9.25;7.50;;;;;19.10;70.51;101117.13;5056550;28;46217;-79
2021/09/27 02:51:42;;;;;;;;;9.00;8.00;;;;;19.17;71.31;101126.84;5056226;28;45656;-79
2021/09/27 02:54:10;;;;;;;;;7.50;5.75;;;;;19.18;70.72;101127.75;5056819;28;45343;-81
2021/09/27 02:57:07;;;;;;;;;7.75;7.50;;;;;19.17;70.81;101129.47;5056944;28;45236;-79
2021/09/27 02:59:56;;;;;;;;;9.00;6.25;;;;;19.18;71.11;101136.47;5056390;28;48082;-79
2021/09/27 03:02:52;;;;;;;;;9.00;6.75;;;;;19.16;71.07;101135.59;5056992;28;45860;-78
2021/09/27 03:05:32;;;;;;;;;7.75;6.00;;;;;19.13;70.99;101121.53;5057062;28;45327;-78
2021/09/27 03:08:03;;;;;;;;;9.50;7.75;;;;;19.13;70.83;101121.53;5056231;28;45449;-76
2021/09/27 03:11:17;;;;;;;;;8.50;8.50;;;;;19.08;70.71;101110.09;5057520;28;45340;-82
2021/09/27 03:14:13;;;;;;;;;8.25;6.75;;;;;19.13;71.17;101121.53;5064012;28;45325;-83
2021/09/27 03:16:53;;;;;;;;;6.00;6.00;;;;;19.13;71.25;101113.66;5059674;28;45378;-84
2021/09/27 03:19:36;;;;;;;;;6.00;5.00;;;;;19.12;71.08;101119.75;5058517;28;45446;-79
2021/09/27 03:22:33;;;;;;;;;10.75;8.75;;;;;19.10;70.71;101116.25;5056055;28;45274;-76
2021/09/27 03:25:20;;;;;;;;;10.00;6.25;;;;;19.15;70.84;101125.06;5055845;28;45368;-80
2021/09/27 03:28:04;;;;;;;;;10.25;7.00;;;;;19.15;70.66;101118.09;5056441;28;45300;-83
2021/09/27 03:30:55;;;;;;;;;5.75;5.75;;;;;19.19;70.65;101124.25;5056047;28;45518;-82
2021/09/27 03:33:33;;;;;;;;;11.00;9.50;;;;;19.22;70.91;101123.41;5054975;28;47004;-82
2021/09/27 03:36:23;;;;;;;;;11.50;9.50;;;;;19.20;71.23;101126.03;5058083;28;45306;-81
2021/09/27 03:39:22;;;;;;;;;9.00;8.50;;;;;19.16;70.74;101119.84;5056737;28;45444;-83
2021/09/27 03:41:51;;;;;;;;;7.75;7.75;;;;;19.19;70.56;101132.13;5055404;28;45592;-83
2021/09/27 03:44:54;;;;;;;;;7.50;7.50;;;;;19.16;71.27;101130.34;5056225;28;45533;-83
2021/09/27 03:47:36;;;;;;;;;9.50;6.75;;;;;19.21;71.15;101140.03;5056015;28;45665;-82
2021/09/27 03:50:08;;;;;;;;;10.50;7.25;;;;;19.21;71.02;101142.66;5055826;28;45181;-81
2021/09/27 03:52:41;;;;;;;;;8.25;8.25;;;;;19.21;70.78;101143.53;5056861;28;45428;-83
2021/09/27 03:55:12;;;;;;;;;6.75;6.00;;;;;19.16;70.96;101137.34;5055865;28;45903;-83
2021/09/27 03:57:44;;;;;;;;;8.75;7.25;;;;;19.13;70.37;101139.91;5055886;28;45790;-82
2021/09/27 04:00:15;;;;;;;;;9.25;8.00;;;;;19.09;70.36;101133.72;5060057;28;45339;-83
2021/09/27 04:02:47;;;;;;;;;8.50;7.50;;;;;19.08;70.46;101139.84;5064719;28;45296;-80
2021/09/27 04:05:48;;;;;;;;;6.00;6.00;;;;;19.09;70.30;101138.13;5063390;28;46218;-82
2021/09/27 04:08:56;;;;;;;;;7.25;6.50;;;;;19.05;70.46;101137.19;5041799;28;45468;-84
2021/09/27 04:11:41;;;;;;;;;6.75;6.75;;;;;19.00;70.41;101138.84;5056118;28;45256;-80
2021/09/27 04:14:19;;;;;;;;;9.75;7.25;;;;;18.95;70.55;101136.16;5057411;28;45228;-85
2021/09/27 04:17:22;;;;;;;;;9.25;6.00;;;;;18.96;70.29;101135.31;5056316;28;45669;-79
2021/09/27 04:19:48;;;;;;;;;6.25;5.75;;;;;18.95;70.41;101146.66;5057746;28;45698;-80
2021/09/27 04:22:28;;;;;;;;;7.25;6.25;;;;;18.92;70.82;101143.06;5058353;28;45255;-81
2021/09/27 04:25:07;;;;;;;;;7.75;7.75;;;;;18.98;70.94;101141.47;5058899;28;45314;-81
2021/09/27 04:28:04;;;;;;;;;7.25;6.50;;;;;18.93;70.33;101124.75;5059549;28;46221;-78
2021/09/27 04:30:51;;;;;;;;;5.75;5.50;;;;;18.94;70.04;101116.03;5040368;28;45585;-78
2021/09/27 04:33:38;;;;;;;;;5.75;5.50;;;;;19.02;70.07;101119.63;5059285;28;45460;-77
2021/09/27 04:36:27;;;;;;;;;5.25;5.00;;;;;19.02;69.94;101101.25;5059620;28;45270;-75
2021/09/27 04:38:58;;;;;;;;;7.00;6.25;;;;;18.94;69.38;101102.91;5057236;28;47361;-78
2021/09/27 04:41:55;;;;;;;;;5.50;5.25;;;;;18.80;69.96;101081.69;5058754;28;45729;-77
2021/09/27 04:44:35;;;;;;;;;4.75;4.75;;;;;18.98;69.59;101106.44;5059172;28;45300;-78
2021/09/27 04:47:22;;;;;;;;;4.75;4.75;;;;;18.98;69.58;101109.06;5058250;28;45410;-81
2021/09/27 04:50:03;;;;;;;;;7.75;6.50;;;;;18.97;69.70;101096.81;5065176;28;46072;-80
2021/09/27 04:52:37;;;;;;;;;4.75;4.00;;;;;18.96;69.79;101102.91;5062314;28;45582;-82
2021/09/27 04:55:22;;;;;;;;;6.75;6.50;;;;;18.95;69.57;101103.81;5058917;28;45283;-80
2021/09/27 04:58:20;;;;;;;;;11.75;5.25;;;;;18.93;70.00;101098.50;5059009;28;45352;-78
2021/09/27 05:01:08;;;;;;;;;6.75;6.00;;;;;18.93;70.14;101100.22;5057664;28;46188;-77
2021/09/27 05:04:00;;;;;;;;;4.75;3.50;;;;;18.94;69.72;101096.78;5054948;28;45396;-77
2021/09/27 05:07:03;;;;;;;;;6.75;5.00;;;;;18.95;69.83;101093.31;5055809;28;45428;-77
2021/09/27 05:09:50;;;;;;;;;7.00;6.50;;;;;18.93;69.64;101088.00;5058486;28;45354;-78
2021/09/27 05:12:50;;;;;;;;;5.25;5.25;;;;;18.93;69.91;101092.34;5056693;28;46375;-79
2021/09/27 05:15:24;;;;;;;;;5.75;5.25;;;;;18.92;69.65;101075.72;5058018;28;45400;-83
2021/09/27 05:18:18;;;;;;;;;5.75;5.25;;;;;18.88;69.56;101074.81;5058636;28;45417;-79
2021/09/27 05:21:08;;;;;;;;;6.25;4.50;;;;;18.84;69.76;101070.34;5058071;28;45303;-79
2021/09/27 05:24:10;;;;;;;;;7.25;5.00;;;;;18.81;70.41;101074.69;5057907;28;45270;-77
2021/09/27 05:27:28;;;;;;;;;5.50;5.00;;;;;18.76;69.83;101079.84;5058259;28;45759;-78
2021/09/27 05:30:15;;;;;;;;;6.25;6.25;;;;;18.73;70.20;101071.97;5049665;28;45329;-80
2021/09/27 05:32:52;;;;;;;;;9.00;5.00;;;;;18.70;70.15;101079.78;5055313;28;45407;-77
2021/09/27 05:35:48;;;;;;;;;9.00;6.00;;;;;18.69;70.63;101091.13;5056185;28;45561;-79
2021/09/27 05:38:26;;;;;;;;;7.75;6.00;;;;;18.67;70.38;101079.72;5058967;28;45432;-83
2021/09/27 05:41:01;;;;;;;;;6.00;5.00;;;;;18.69;70.84;101070.13;5061420;28;45478;-83
2021/09/27 05:44:02;;;;;;;;;6.75;5.00;;;;;18.68;70.83;101066.63;5057430;28;45231;-78
2021/09/27 05:47:11;;;;;;;;;11.00;9.50;;;;;18.67;71.12;101061.34;5041250;28;45521;-85
2021/09/27 05:50:14;;;;;;;;;4.25;4.00;;;;;18.64;70.75;101063.94;5053649;28;45433;-85
2021/09/27 05:53:01;;;;;;;;;7.50;6.75;;;;;18.59;71.06;101070.84;5036389;28;45868;-79
2021/09/27 05:55:37;;;;;;;;;7.75;6.75;;;;;18.59;70.67;101063.00;5037783;28;45500;-81
2021/09/27 05:58:25;;;;;;;;;7.00;5.75;;;;;18.58;71.06;101067.34;5037305;28;45335;-77
2021/09/27 06:01:10;;;;;;;;;6.00;6.00;;;;;18.58;71.29;101069.94;5042276;28;45323;-80
2021/09/27 06:04:03;;;;;;;;;5.50;4.50;;;;;18.56;71.27;101067.31;5063006;28;45386;-86
2021/09/27 06:06:45;;;;;;;;;6.75;5.75;;;;;18.64;71.25;101077.03;5043056;28;45355;-85
2021/09/27 06:09:32;;;;;;;;;5.00;4.00;;;;;18.69;70.89;101093.75;5037831;28;46439;-82
2021/09/27 06:12:37;;;;;;;;;7.25;5.50;;;;;18.73;70.67;101092.94;5054874;28;45436;-82
2021/09/27 06:15:07;;;;;;;;;7.25;4.75;;;;;18.72;70.63;101094.66;5057779;28;45543;-77
2021/09/27 06:18:02;;;;;;;;;6.00;4.50;;;;;18.80;70.58;101102.66;5061724;28;45471;-82
2021/09/27 06:21:06;;;;;;;;;6.00;5.00;;;;;18.87;70.36;101107.13;5061370;28;45314;-80
2021/09/27 06:23:49;;;;;;;;;6.75;5.00;;;;;18.87;70.59;101114.13;5058766;28;45915;-90
2021/09/27 06:26:17;;;;;;;;;3.75;3.75;;;;;18.87;69.85;101103.66;5059332;28;45235;-86
2021/09/27 06:28:58;;;;;;;;;6.25;3.25;;;;;18.95;70.49;101103.81;5062491;28;45565;-86
2021/09/27 06:31:40;;;;;;;;;3.50;3.50;;;;;18.92;70.21;101090.59;5063160;28;45468;-87
2021/09/27 06:34:15;;;;;;;;;6.25;5.25;;;;;19.03;69.91;101110.03;5058468;28;45406;-81
2021/09/27 06:36:42;;;;;;;;;6.00;6.00;;;;;19.06;69.72;101110.06;5055996;28;45681;-85
2021/09/27 06:39:15;;;;;;;;;7.00;6.00;;;;;19.06;69.88;101102.19;5056745;28;45680;-85
2021/09/27 06:41:42;;;;;;;;;6.25;4.25;;;;;19.09;69.85;101111.88;5058597;28;46255;-85
2021/09/27 06:44:07;;;;;;;;;6.00;3.00;;;;;18.98;69.74;101090.69;5059555;28;46314;-84
2021/09/27 06:46:33;;;;;;;;;6.00;4.75;;;;;19.01;70.20;101080.25;5056184;28;45396;-82
2021/09/27 06:48:59;;;;;;;;;2.75;2.75;;;;;19.12;69.93;101097.03;5056867;28;45333;-79
2021/09/27 06:51:25;;;;;;;;;6.00;3.50;;;;;19.10;69.47;101105.75;5055603;28;46135;-82
2021/09/27 06:53:50;;;;;;;;;5.25;4.00;;;;;19.06;69.43;101096.94;5055235;28;45157;-79
2021/09/27 06:56:16;;;;;;;;;4.25;3.25;;;;;19.10;69.74;101100.50;5055704;28;45466;-79
2021/09/27 06:58:42;;;;;;;;;8.00;5.00;;;;;19.09;70.25;101085.63;5056291;28;45562;-78
2021/09/27 07:01:07;;;;;;;;;6.25;5.25;;;;;19.10;70.08;101088.25;5055293;28;45692;-80
2021/09/27 07:03:33;;;;;;;;;2.00;2.00;;;;;19.12;69.88;101090.91;5056136;28;45348;-80
2021/09/27 07:05:59;;;;;;;;;4.25;4.00;;;;;19.13;70.84;101096.19;5056048;28;45399;-79
2021/09/27 07:08:25;;;;;;;;;0.00;0.00;;;;;19.15;70.52;101104.97;5056119;28;45437;-79
2021/09/27 07:10:53;;;;;;;;;6.50;6.00;;;;;19.16;70.01;101117.22;5053844;28;46908;-78
2021/09/27 07:13:19;;;;;;;;;6.50;5.75;;;;;19.14;70.19;101103.19;5058994;28;45497;-78
2021/09/27 07:15:45;;;;;;;;;5.75;5.75;;;;;19.13;70.64;101095.28;5060750;28;45320;-78
2021/09/27 07:18:10;;;;;;;;;3.00;3.00;;;;;19.18;70.50;101107.63;5056671;28;45472;-79
2021/09/27 07:20:36;;;;;;;;;7.00;3.00;;;;;19.19;70.57;101100.63;5055185;28;46106;-78
2021/09/27 07:23:03;;;;;;;;;3.75;3.75;;;;;19.18;70.18;101094.50;5055671;28;45410;-78
2021/09/27 07:25:30;;;;;;;;;5.50;4.00;;;;;19.17;70.47;101092.72;5055446;28;45499;-78
2021/09/27 07:27:57;;;;;;;;;6.00;4.00;;;;;19.15;70.29;101093.56;5054574;28;45623;-79
2021/09/27 07:30:23;;;;;;;;;5.00;5.00;;;;;19.13;70.82;101083.06;5052849;28;46291;-78
2021/09/27 07:32:50;;;;;;;;;6.75;5.50;;;;;19.10;70.68;101090.88;5054994;28;45216;-78
2021/09/27 07:35:19;;;;;;;;;2.75;2.75;;;;;19.03;71.12;101091.66;5056211;28;45349;-78
2021/09/27 07:37:45;;;;;;;;;0.50;0.50;;;;;18.97;71.35;101088.94;5055906;28;45367;-77
2021/09/27 07:40:16;;;;;;;;;7.00;5.75;;;;;18.99;71.41;101082.88;5054106;28;46501;-77
2021/09/27 07:42:42;;;;;;;;;4.25;4.00;;;;;19.02;71.39;101092.53;5055025;28;45782;-77
2021/09/27 07:45:11;;;;;;;;;5.00;5.00;;;;;19.01;71.21;101094.25;5055084;28;45454;-78
2021/09/27 07:47:36;;;;;;;;;4.75;4.00;;;;;19.02;71.57;101089.91;5055158;28;45560;-77
2021/09/27 07:50:04;;;;;;;;;4.50;3.00;;;;;19.01;71.62;101089.00;5055168;28;45924;-77
2021/09/27 07:52:29;;;;;;;;;5.50;5.50;;;;;19.07;72.03;101087.34;5055983;28;45338;-78
2021/09/27 07:54:55;;;;;;;;;4.75;3.00;;;;;18.98;71.30;101075.84;5059376;28;45314;-78
2021/09/27 07:57:21;;;;;;;;;6.25;6.25;;;;;19.03;71.40;101086.41;5060787;28;45349;-79
2021/09/27 07:59:48;;;;;;;;;4.00;4.00;;;;;18.95;71.49;101088.94;5059642;28;45404;-82
2021/09/27 08:02:18;;;;;;;;;8.00;6.75;;;;;18.99;71.90;101101.25;5063041;28;45282;-80
2021/09/27 08:04:44;;;;;;;;;10.00;7.75;;;;;19.00;71.51;101095.13;5062209;28;45359;-78
2021/09/27 08:07:09;;;;;;;;;4.75;4.75;;;;;19.01;71.54;101096.00;5062117;28;45336;-79
2021/09/27 08:09:35;;;;;;;;;4.00;4.00;;;;;18.99;71.71;101095.09;5059748;28;45668;-79
2021/09/27 08:12:01;;;;;;;;;4.00;4.00;;;;;19.01;71.70;101102.13;5057863;28;45664;-78
2021/09/27 08:14:27;;;;;;;;;4.00;3.50;;;;;19.00;71.59;101095.13;5058803;28;45343;-78
2021/09/27 08:16:53;;;;;;;;;7.50;7.00;;;;;19.05;71.72;101096.94;5058590;28;45546;-77
2021/09/27 08:19:24;;;;;;;;;6.00;5.00;;;;;19.08;71.24;101110.09;5057559;28;46834;-78
2021/09/27 08:21:51;;;;;;;;;4.00;3.00;;;;;19.06;71.79;101103.94;5057175;28;45260;-79
2021/09/27 08:24:17;;;;;;;;;5.50;4.25;;;;;19.06;71.29;101102.19;5057464;28;45851;-78
2021/09/27 08:26:42;;;;;;;;;4.00;4.00;;;;;19.10;71.68;101101.38;5058691;28;45438;-76
2021/09/27 08:29:08;;;;;;;;;7.00;5.75;;;;;19.13;71.74;101092.66;5058539;28;45440;-79
2021/09/27 08:31:34;;;;;;;;;5.75;5.00;;;;;19.10;71.63;101075.13;5058780;28;45384;-78
2021/09/27 08:33:59;;;;;;;;;8.25;6.00;;;;;19.08;71.12;101095.22;5059261;28;45363;-77
2021/09/27 08:36:25;;;;;;;;;6.25;4.25;;;;;19.12;71.49;101083.91;5059032;28;45343;-79
2021/09/27 08:38:51;;;;;;;;;5.50;4.00;;;;;19.03;71.42;101068.91;5058619;28;45580;-79
2021/09/27 08:41:27;;;;;;;;;5.75;5.75;;;;;19.06;71.89;101081.19;5058842;28;45761;-79
2021/09/27 08:44:15;;;;;;;;;4.00;4.00;;;;;19.11;71.64;101090.03;5057733;28;45397;-79
2021/09/27 08:46:51;;;;;;;;;6.50;5.00;;;;;19.10;72.00;101074.28;5068273;28;45458;-78
2021/09/27 08:49:38;;;;;;;;;5.00;5.00;;;;;19.12;71.87;101069.91;5057363;28;46492;-80
2021/09/27 08:52:06;;;;;;;;;11.25;8.00;;;;;19.12;71.30;101078.66;5065598;28;45627;-80
2021/09/27 08:54:34;;;;;;;;;6.00;5.25;;;;;19.16;71.40;101087.47;5059094;28;45176;-78
2021/09/27 08:57:16;;;;;;;;;6.25;5.00;;;;;19.13;72.29;101069.94;5059762;28;45260;-77
2021/09/27 09:00:01;;;;;;;;;5.50;4.25;;;;;19.13;71.83;101066.41;5057973;28;45457;-80
2021/09/27 09:02:34;;;;;;;;;7.50;6.00;;;;;19.11;72.07;101079.53;5059021;28;45397;-79
2021/09/27 09:05:25;;;;;;;;;5.50;4.50;;;;;19.15;72.12;101078.72;5058141;28;45474;-81
2021/09/27 09:08:22;;;;;;;;;8.25;5.25;;;;;19.23;71.45;101059.56;5057118;28;45251;-80
2021/09/27 09:10:58;;;;;;;;;7.75;6.25;;;;;19.25;71.92;101070.97;5056970;28;46193;-79
2021/09/27 09:13:40;;;;;;;;;4.50;4.50;;;;;19.27;71.22;101088.50;5055544;28;45382;-77
2021/09/27 09:16:08;;;;;;;;;6.25;6.25;;;;;19.24;71.47;101084.94;5058232;28;45297;-76
2021/09/27 09:18:52;;;;;;;;;4.00;4.00;;;;;19.25;71.37;101069.22;5058679;28;45537;-78
2021/09/27 09:21:25;;;;;;;;;5.50;5.25;;;;;19.31;70.84;101079.81;5057082;28;45947;-76
2021/09/27 09:23:56;;;;;;;;;5.50;4.75;;;;;19.23;71.17;101042.06;5057126;28;45733;-78
2021/09/27 09:26:30;;;;;;;;;4.75;4.50;;;;;19.32;70.87;101043.91;5057829;28;45421;-77
2021/09/27 09:28:57;;;;;;;;;5.50;4.50;;;;;19.44;70.36;101043.19;5057935;28;45407;-78
2021/09/27 09:31:34;;;;;;;;;8.50;6.00;;;;;19.41;70.94;101044.03;5057549;28;45320;-78
2021/09/27 09:34:22;;;;;;;;;7.00;6.75;;;;;19.45;70.30;101037.06;5057633;28;45236;-77
2021/09/27 09:36:52;;;;;;;;;5.00;5.00;;;;;19.49;70.68;101042.38;5054915;28;45520;-78
2021/09/27 09:39:34;;;;;;;;;4.00;4.00;;;;;19.54;70.64;101045.06;5061321;28;45227;-78
2021/09/27 09:42:14;;;;;;;;;6.25;4.50;;;;;19.57;69.89;101055.59;5059375;28;46643;-77
2021/09/27 09:44:43;;;;;;;;;7.00;5.00;;;;;19.59;70.02;101053.00;5057190;28;45219;-78
2021/09/27 09:47:29;;;;;;;;;5.50;5.25;;;;;19.68;69.75;101061.00;5057719;28;45387;-79
2021/09/27 09:50:07;;;;;;;;;6.50;4.00;;;;;19.69;69.41;101070.63;5057693;28;45409;-81
2021/09/27 09:52:42;;;;;;;;;7.00;7.00;;;;;19.73;69.44;101084.69;5057750;28;45350;-77
2021/09/27 09:55:20;;;;;;;;;8.00;6.75;;;;;19.75;69.03;101064.56;5056909;28;45313;-79
2021/09/27 09:57:55;;;;;;;;;6.75;5.25;;;;;19.84;69.30;101072.53;5056773;28;45260;-77
2021/09/27 10:00:34;;;;;;;;;6.00;4.75;;;;;19.89;68.43;101078.75;5056809;28;45457;-78
2021/09/27 10:03:01;;;;;;;;;3.00;3.00;;;;;19.89;67.95;101093.63;5057154;28;45569;-77
2021/09/27 10:05:36;;;;;;;;;6.75;5.00;;;;;19.84;68.46;101055.88;5056933;28;45312;-76
2021/09/27 10:08:06;;;;;;;;;5.00;5.00;;;;;19.93;67.67;101064.78;5056700;28;45394;-77
2021/09/27 10:10:41;;;;;;;;;6.75;5.00;;;;;19.97;67.46;101070.06;5057221;28;45498;-78
2021/09/27 10:13:44;;;;;;;;;6.75;5.00;;;;;19.99;67.31;101078.84;5054266;28;46240;-77
2021/09/27 10:16:38;;;;;;;;;4.75;3.50;;;;;19.93;66.79;101071.75;5047057;28;45887;-77
2021/09/27 10:19:23;;;;;;;;;3.75;3.50;;;;;19.91;66.92;101107.69;5055188;28;45392;-77
2021/09/27 10:21:57;;;;;;;;;2.00;2.00;;;;;19.78;68.48;101098.72;5055587;28;45540;-77
2021/09/27 10:24:40;;;;;;;;;2.50;2.50;;;;;19.67;68.23;101088.13;5053897;28;45458;-80
2021/09/27 10:27:22;;;;;;;;;4.00;2.00;;;;;19.62;69.18;101093.31;5058812;28;45428;-77
2021/09/27 10:29:50;;;;;;;;;5.00;5.00;;;;;19.57;69.46;101081.00;5056841;28;45520;-80
2021/09/27 10:32:33;;;;;;;;;2.75;2.75;;;;;19.56;69.68;101097.59;5056681;28;45576;-79
2021/09/27 10:35:06;;;;;;;;;3.00;3.00;;;;;19.47;69.94;101087.84;5056009;28;45355;-80
2021/09/27 10:37:32;;;;;;;;;5.75;5.25;;;;;19.47;70.57;101085.25;5056455;28;46053;-80
2021/09/27 10:39:58;;;;;;;;;6.00;3.25;;;;;19.48;69.94;101094.88;5056901;28;45396;-79
2021/09/27 10:42:53;;;;;;;;;5.75;4.25;;;;;19.45;70.84;101077.34;5056935;28;45347;-80
2021/09/27 10:45:21;;;;;;;;;5.00;5.00;;;;;19.48;71.10;101089.63;5055562;28;45565;-80
2021/09/27 10:47:52;;;;;;;;;4.50;4.00;;;;;19.51;71.21;101102.81;5056310;28;45462;-79
2021/09/27 10:50:31;;;;;;;;;2.75;2.75;;;;;19.47;71.04;101088.75;5055091;28;45494;-77
2021/09/27 10:53:31;;;;;;;;;4.50;4.50;;;;;19.46;70.94;101078.22;5056724;28;45214;-78
2021/09/27 10:56:34;;;;;;;;;3.75;3.25;;;;;19.51;71.43;101096.66;5055405;28;46037;-80
2021/09/27 10:59:40;;;;;;;;;5.25;4.00;;;;;19.55;71.44;101090.59;5055727;28;45302;-78
2021/09/27 11:02:30;;;;;;;;;7.25;5.75;;;;;19.57;71.64;101087.09;5059156;28;45543;-79
2021/09/27 11:05:12;;;;;;;;;5.50;4.00;;;;;19.65;71.07;101092.47;5057244;28;45430;-78
2021/09/27 11:07:53;;;;;;;;;3.00;3.00;;;;;19.63;71.10;101084.56;5054841;28;45487;-79
2021/09/27 11:10:40;;;;;;;;;5.25;5.25;;;;;19.73;71.24;101082.91;5054337;28;45449;-79
2021/09/27 11:13:08;;;;;;;;;4.25;4.25;;;;;19.71;70.91;101117.94;5055524;28;45587;-82
2021/09/27 11:15:39;;;;;;;;;4.50;3.25;;;;;19.54;69.46;101196.50;5061772;28;45438;-81
2021/09/27 11:18:13;;;;;;;;;1.50;1.00;;;;;19.24;71.82;101229.31;5061920;28;46195;-81
2021/09/27 11:21:02;;;;;;;;;0.75;0.00;;;;;18.66;74.37;101230.06;5057877;28;45369;-83
2021/09/27 11:23:31;;;;;;;;;0.00;0.00;;;;;18.32;73.47;101226.81;5054796;28;45382;-81
2021/09/27 11:26:14;;;;;;;;;0.75;0.00;;;;;18.20;73.34;101225.69;5056170;28;45620;-83
2021/09/27 11:28:49;;;;;;;;;0.00;0.00;;;;;18.17;70.51;101220.44;5055781;28;46261;-78
2021/09/27 11:31:27;;;;;;;;;1.75;0.00;;;;;18.22;68.39;101225.75;5057674;28;45342;-80
2021/09/27 11:33:55;;;;;;;;;0.25;0.25;;;;;18.24;68.09;101226.69;5056024;28;45332;-79
2021/09/27 11:36:21;;;;;;;;;2.50;1.00;;;;;18.23;67.81;101238.00;5056419;28;45577;-79
2021/09/27 11:38:49;;;;;;;;;0.75;0.75;;;;;18.16;67.81;101255.34;5055029;28;45897;-80
2021/09/27 11:41:15;;;;;;;;;1.00;0.25;;;;;18.12;68.00;101257.88;5055794;28;45731;-78
2021/09/27 11:44:08;;;;;;;;;0.00;0.00;;;;;18.03;67.17;101255.94;5056031;28;45677;-79
2021/09/27 11:46:37;;;;;;;;;0.00;0.00;;;;;18.01;67.75;101260.25;5056524;28;45436;-79
2021/09/27 11:49:20;;;;;;;;;1.00;1.00;;;;;17.98;67.02;101255.84;5054617;28;45867;-78
2021/09/27 11:52:03;;;;;;;;;2.00;1.25;;;;;17.98;67.59;101254.97;5050760;28;45409;-85
2021/09/27 11:54:57;;;;;;;;;1.25;0.25;;;;;17.92;66.81;101247.81;5056155;28;45300;-81
2021/09/27 11:57:36;;;;;;;;;0.00;0.00;;;;;17.99;66.96;101261.94;5056264;28;45520;-82
2021/09/27 12:00:07;;;;;;;;;0.00;0.00;;;;;17.98;66.70;101273.31;5057099;28;45359;-81
2021/09/27 12:02:37;;;;;;;;;0.00;0.00;;;;;17.96;66.69;101288.94;5056556;28;45541;-81
2021/09/27 12:05:05;;;;;;;;;1.25;1.00;;;;;17.98;66.58;101302.13;5057572;28;45343;-79
2021/09/27 12:07:49;;;;;;;;;0.00;0.00;;;;;17.91;66.66;101291.47;5063113;28;45169;-78
2021/09/27 12:10:47;;;;;;;;;2.00;0.00;;;;;17.91;66.95;101299.31;5062736;28;45373;-78
2021/09/27 12:13:26;;;;;;;;;0.50;0.50;;;;;17.90;67.18;101312.38;5056410;28;45778;-79
2021/09/27 12:15:59;;;;;;;;;1.00;0.00;;;;;17.81;66.51;101305.19;5055505;28;45252;-78